createdAt,value
2018-01-15T00:00:16.850Z,16.00
2018-01-15T00:02:51.193Z,14.17
2018-01-15T00:05:25.897Z,13.97
2018-01-15T00:07:59.894Z,9.60
2018-01-15T00:10:34.455Z,13.20
2018-01-15T00:13:08.297Z,14.20
2018-01-15T00:15:42.441Z,12.53
2018-01-15T00:18:16.139Z,14.10
2018-01-15T00:20:49.987Z,16.07
2018-01-15T00:23:23.675Z,13.30
2018-01-15T00:25:58.419Z,14.97
2018-01-15T00:28:32.515Z,14.87
2018-01-15T00:31:06.349Z,15.50
2018-01-15T00:33:40.289Z,15.70
2018-01-15T00:36:14.139Z,15.23
2018-01-15T00:38:48.567Z,13.00
2018-01-15T00:41:22.390Z,16.83
2018-01-15T00:43:56.042Z,13.57
2018-01-15T00:46:30.539Z,15.53
2018-01-15T00:49:04.977Z,16.20
2018-01-15T00:51:38.998Z,11.93
2018-01-15T00:54:13.535Z,13.63
2018-01-15T00:56:48.235Z,13.90
2018-01-15T00:59:22.306Z,13.53
2018-01-15T01:01:56.083Z,13.37
2018-01-15T01:04:29.752Z,10.93
2018-01-15T01:07:04.403Z,9.70
2018-01-15T01:09:38.268Z,12.87
2018-01-15T01:12:12.116Z,12.73
2018-01-15T01:14:46.037Z,14.13
2018-01-15T01:17:20.536Z,10.70
2018-01-15T01:19:54.654Z,13.23
2018-01-15T01:22:28.601Z,12.50
2018-01-15T01:25:02.503Z,12.60
2018-01-15T01:27:36.072Z,11.50
2018-01-15T01:30:10.068Z,29.60
2018-01-15T01:32:43.904Z,12.63
2018-01-15T01:35:18.379Z,11.50
2018-01-15T01:37:52.558Z,8.80
2018-01-15T01:40:26.460Z,14.57
2018-01-15T01:43:00.372Z,11.60
2018-01-15T01:45:34.205Z,13.03
2018-01-15T01:48:09.431Z,11.27
2018-01-15T01:50:43.865Z,9.73
2018-01-15T01:53:18.293Z,13.00
2018-01-15T01:55:52.152Z,12.80
2018-01-15T01:58:26.134Z,14.37
2018-01-15T02:01:00.554Z,7.93
2018-01-15T02:03:34.245Z,10.90
2018-01-15T02:06:08.027Z,10.87
2018-01-15T02:08:41.743Z,11.90
2018-01-15T02:11:15.565Z,9.80
2018-01-15T02:13:49.361Z,10.90
2018-01-15T02:16:23.141Z,14.03
2018-01-15T02:18:57.928Z,10.27
2018-01-15T02:21:31.841Z,10.33
2018-01-15T02:24:05.686Z,11.00
2018-01-15T02:26:39.709Z,9.97
2018-01-15T02:29:13.417Z,8.00
2018-01-15T02:31:47.361Z,13.20
2018-01-15T02:34:21.195Z,10.93
2018-01-15T02:36:54.974Z,10.47
2018-01-15T02:39:29.049Z,10.27
2018-01-15T02:42:02.713Z,11.07
2018-01-15T02:44:36.658Z,12.40
2018-01-15T02:47:10.755Z,12.77
2018-01-15T02:49:45.486Z,11.50
2018-01-15T02:52:19.348Z,12.00
2018-01-15T02:54:53.242Z,7.77
2018-01-15T02:57:27.792Z,11.60
2018-01-15T03:00:02.529Z,10.80
2018-01-15T03:02:37.292Z,12.10
2018-01-15T03:07:52.127Z,9.00
2018-01-15T03:10:26.589Z,12.30
2018-01-15T03:13:00.310Z,12.13
2018-01-15T03:15:33.970Z,10.27
2018-01-15T03:18:07.703Z,11.17
2018-01-15T03:20:41.330Z,11.00
2018-01-15T03:23:14.988Z,10.67
2018-01-15T03:25:49.645Z,10.83
2018-01-15T03:28:23.706Z,13.70
2018-01-15T03:30:58.189Z,12.30
2018-01-15T03:33:32.125Z,12.20
2018-01-15T03:36:07.227Z,13.23
2018-01-15T03:38:41.533Z,12.37
2018-01-15T03:41:15.571Z,10.47
2018-01-15T03:43:49.534Z,10.83
2018-01-15T03:46:23.312Z,11.13
2018-01-15T03:48:57.213Z,12.50
2018-01-15T03:51:31.037Z,13.10
2018-01-15T03:54:04.744Z,11.50
2018-01-15T03:56:38.652Z,9.43
2018-01-15T03:59:12.428Z,9.57
2018-01-15T04:01:46.228Z,11.07
2018-01-15T04:04:20.746Z,9.37
2018-01-15T04:06:55.681Z,11.30
2018-01-15T04:09:29.909Z,12.37
2018-01-15T04:12:04.389Z,12.47
2018-01-15T04:14:38.118Z,10.87
2018-01-15T04:17:11.752Z,11.13
2018-01-15T04:19:46.139Z,13.33
2018-01-15T04:22:20.177Z,13.57
2018-01-15T04:24:53.952Z,11.70
2018-01-15T04:27:27.693Z,11.80
2018-01-15T04:30:02.276Z,11.70
2018-01-15T04:32:37.387Z,12.77
2018-01-15T04:35:11.013Z,10.80
2018-01-15T04:37:44.952Z,10.83
2018-01-15T04:40:18.832Z,10.20
2018-01-15T04:42:52.454Z,9.73
2018-01-15T04:45:26.978Z,12.07
2018-01-15T04:48:00.882Z,12.90
2018-01-15T04:50:34.916Z,10.37
2018-01-15T04:53:08.626Z,11.37
2018-01-15T04:55:42.428Z,12.30
2018-01-15T04:58:16.107Z,11.20
2018-01-15T05:00:49.970Z,9.97
2018-01-15T05:03:24.454Z,12.03
2018-01-15T05:05:59.218Z,11.20
2018-01-15T05:08:33.140Z,10.77
2018-01-15T05:11:07.011Z,8.90
2018-01-15T05:13:40.987Z,8.73
2018-01-15T05:16:15.135Z,7.97
2018-01-15T05:18:49.791Z,10.90
2018-01-15T05:21:23.483Z,12.30
2018-01-15T05:23:57.357Z,11.80
2018-01-15T05:26:30.993Z,11.47
2018-01-15T05:29:04.770Z,10.30
2018-01-15T05:31:38.395Z,11.23
2018-01-15T05:34:12.094Z,8.70
2018-01-15T05:36:46.478Z,9.90
2018-01-15T05:39:21.215Z,10.50
2018-01-15T05:41:55.291Z,9.97
2018-01-15T05:44:29.171Z,10.07
2018-01-15T05:47:02.862Z,8.67
2018-01-15T05:49:36.851Z,9.50
2018-01-15T05:52:11.362Z,11.70
2018-01-15T05:54:45.454Z,10.50
2018-01-15T05:57:19.181Z,10.77
2018-01-15T05:59:52.927Z,11.90
2018-01-15T06:02:26.917Z,10.87
2018-01-15T06:05:00.723Z,11.47
2018-01-15T06:07:34.599Z,11.47
2018-01-15T06:10:08.214Z,12.17
2018-01-15T06:12:42.316Z,11.90
2018-01-15T06:15:16.157Z,11.60
2018-01-15T06:17:50.727Z,12.27
2018-01-15T06:20:24.778Z,12.10
2018-01-15T06:22:59.569Z,13.30
2018-01-15T06:25:33.262Z,9.67
2018-01-15T06:28:07.185Z,12.10
2018-01-15T06:30:40.993Z,7.57
2018-01-15T06:33:14.897Z,11.23
2018-01-15T06:35:49.741Z,12.60
2018-01-15T06:38:23.852Z,10.70
2018-01-15T06:40:57.502Z,11.20
2018-01-15T06:43:31.255Z,13.00
2018-01-15T06:46:05.017Z,13.03
2018-01-15T06:48:39.666Z,12.30
2018-01-15T06:51:14.432Z,13.73
2018-01-15T06:53:48.285Z,11.40
2018-01-15T06:56:22.044Z,11.63
2018-01-15T06:58:56.436Z,9.10
2018-01-15T07:01:31.444Z,12.33
2018-01-15T07:04:05.538Z,12.20
2018-01-15T07:06:40.643Z,12.07
2018-01-15T07:09:15.627Z,12.00
2018-01-15T07:11:49.885Z,11.90
2018-01-15T07:14:24.595Z,9.57
2018-01-15T07:16:58.530Z,12.90
2018-01-15T07:19:32.161Z,12.53
2018-01-15T07:22:05.861Z,13.83
2018-01-15T07:24:39.583Z,10.40
2018-01-15T07:27:14.833Z,11.47
2018-01-15T07:29:49.776Z,12.97
2018-01-15T07:32:24.474Z,10.77
2018-01-15T07:34:58.541Z,11.93
2018-01-15T07:37:32.801Z,13.33
2018-01-15T07:40:08.218Z,12.90
2018-01-15T07:42:42.788Z,12.43
2018-01-15T07:45:17.605Z,13.00
2018-01-15T07:47:51.750Z,10.77
2018-01-15T07:50:26.053Z,11.57
2018-01-15T07:53:01.371Z,8.90
2018-01-15T07:55:35.605Z,11.13
2018-01-15T07:58:09.580Z,9.17
2018-01-15T08:00:43.921Z,12.23
2018-01-15T08:03:19.234Z,10.17
2018-01-15T08:05:53.452Z,8.77
2018-01-15T08:08:28.226Z,34.77
2018-01-15T08:11:02.983Z,13.20
2018-01-15T08:13:37.527Z,12.37
2018-01-15T08:16:12.012Z,11.60
2018-01-15T08:18:46.501Z,13.07
2018-01-15T08:21:20.656Z,10.43
2018-01-15T08:23:55.030Z,11.63
2018-01-15T08:26:28.930Z,12.83
2018-01-15T08:29:02.558Z,8.43
2018-01-15T08:31:36.489Z,11.13
2018-01-15T08:34:10.271Z,12.63
2018-01-15T08:36:44.696Z,15.17
2018-01-15T08:39:18.740Z,12.97
2018-01-15T08:41:53.333Z,11.83
2018-01-15T08:44:27.383Z,12.00
2018-01-15T08:47:01.866Z,12.67
2018-01-15T08:49:36.041Z,13.20
2018-01-15T08:52:09.696Z,13.00
2018-01-15T08:54:44.015Z,14.10
2018-01-15T08:57:18.489Z,11.97
2018-01-15T08:59:52.361Z,13.90
2018-01-15T09:02:26.956Z,12.67
2018-01-15T09:05:01.088Z,13.20
2018-01-15T09:07:35.669Z,13.37
2018-01-15T09:10:09.725Z,11.63
2018-01-15T09:12:43.520Z,13.20
2018-01-15T09:15:18.145Z,10.87
2018-01-15T09:17:52.196Z,11.70
2018-01-15T09:20:25.921Z,14.73
2018-01-15T09:23:00.307Z,11.57
2018-01-15T09:25:35.928Z,10.83
2018-01-15T09:28:11.371Z,11.57
2018-01-15T09:30:45.282Z,12.40
2018-01-15T09:33:18.903Z,12.20
2018-01-15T09:35:53.255Z,13.70
2018-01-15T09:38:27.798Z,14.10
2018-01-15T09:41:01.932Z,14.00
2018-01-15T09:43:36.579Z,13.10
2018-01-15T09:46:10.236Z,13.10
2018-01-15T09:48:43.913Z,12.60
2018-01-15T09:51:18.890Z,14.20
2018-01-15T09:53:53.344Z,12.80
2018-01-15T09:56:27.770Z,13.57
2018-01-15T09:59:01.849Z,13.50
2018-01-15T10:01:35.540Z,14.27
2018-01-15T10:04:09.256Z,11.53
2018-01-15T10:06:43.211Z,13.53
2018-01-15T10:09:17.852Z,13.33
2018-01-15T10:11:53.117Z,15.50
2018-01-15T10:14:26.936Z,11.93
2018-01-15T10:17:00.660Z,13.93
2018-01-15T10:19:34.463Z,14.70
2018-01-15T10:22:08.237Z,14.57
2018-01-15T10:24:42.800Z,12.97
2018-01-15T10:27:17.296Z,15.30
2018-01-15T10:29:51.867Z,15.80
2018-01-15T10:32:26.957Z,14.40
2018-01-15T10:35:00.903Z,13.00
2018-01-15T10:37:34.720Z,15.40
2018-01-15T10:40:08.528Z,14.73
2018-01-15T10:42:43.115Z,13.67
2018-01-15T10:45:16.981Z,14.03
2018-01-15T10:47:50.684Z,15.43
2018-01-15T10:50:24.725Z,15.40
2018-01-15T10:52:59.115Z,13.77
2018-01-15T10:55:32.983Z,13.70
2018-01-15T10:58:07.535Z,15.83
2018-01-15T11:00:48.029Z,15.17
2018-01-15T11:03:23.056Z,16.40
2018-01-15T11:05:56.977Z,15.20
2018-01-15T11:08:30.687Z,14.20
2018-01-15T11:11:04.783Z,16.37
2018-01-15T11:13:39.234Z,15.13
2018-01-15T11:16:13.312Z,13.40
2018-01-15T11:18:48.187Z,15.47
2018-01-15T11:21:23.579Z,12.17
2018-01-15T11:23:57.634Z,17.20
2018-01-15T11:26:32.078Z,14.83
2018-01-15T11:29:07.228Z,16.40
2018-01-15T11:31:42.384Z,11.27
2018-01-15T11:34:16.496Z,12.13
2018-01-15T11:36:50.588Z,14.20
2018-01-15T11:39:25.204Z,11.50
2018-01-15T11:42:00.507Z,13.43
2018-01-15T11:44:34.295Z,15.10
2018-01-15T11:47:09.008Z,13.43
2018-01-15T11:49:43.125Z,15.27
2018-01-15T11:52:17.063Z,11.17
2018-01-15T11:54:52.004Z,13.60
2018-01-15T11:57:26.510Z,13.33
2018-01-15T12:00:00.316Z,12.00
2018-01-15T12:02:34.061Z,15.07
2018-01-15T12:05:08.600Z,14.00
2018-01-15T12:07:42.958Z,12.70
2018-01-15T12:10:18.264Z,15.53
2018-01-15T12:12:52.854Z,16.20
2018-01-15T12:15:26.907Z,12.93
2018-01-15T12:18:00.646Z,10.80
2018-01-15T12:20:35.670Z,15.80
2018-01-15T12:23:09.993Z,11.87
2018-01-15T12:25:45.129Z,13.57
2018-01-15T12:28:18.990Z,12.00
2018-01-15T12:30:52.935Z,17.23
2018-01-15T12:33:27.214Z,10.97
2018-01-15T12:36:02.497Z,13.83
2018-01-15T12:38:37.505Z,12.67
2018-01-15T12:41:11.776Z,11.37
2018-01-15T12:43:47.185Z,15.60
2018-01-15T12:46:22.454Z,16.90
2018-01-15T12:48:56.545Z,13.83
2018-01-15T12:51:33.171Z,14.90
2018-01-15T12:54:06.831Z,12.27
2018-01-15T12:56:40.572Z,14.20
2018-01-15T12:59:14.216Z,12.10
2018-01-15T13:01:48.000Z,12.87
2018-01-15T13:04:21.853Z,16.20
2018-01-15T13:06:56.109Z,16.03
2018-01-15T13:09:30.721Z,15.87
2018-01-15T13:12:04.609Z,16.17
2018-01-15T13:14:39.672Z,15.33
2018-01-15T13:17:14.057Z,15.40
2018-01-15T13:19:48.802Z,15.20
2018-01-15T13:22:33.501Z,15.63
2018-01-15T13:25:08.871Z,16.87
2018-01-15T13:27:46.193Z,16.50
2018-01-15T13:30:19.908Z,13.50
2018-01-15T13:32:54.235Z,13.10
2018-01-15T13:35:32.236Z,13.73
2018-01-15T13:38:09.127Z,16.33
2018-01-15T13:40:51.209Z,13.50
2018-01-15T13:43:29.506Z,13.70
2018-01-15T13:46:06.532Z,14.87
2018-01-15T13:48:40.206Z,14.53
2018-01-15T13:51:14.617Z,16.43
2018-01-15T13:54:01.498Z,14.63
2018-01-15T13:56:39.800Z,13.23
2018-01-15T13:59:17.537Z,15.00
2018-01-15T14:04:38.182Z,15.30
2018-01-15T14:07:19.220Z,13.37
2018-01-15T14:10:04.255Z,13.23
2018-01-15T14:12:41.141Z,13.23
2018-01-15T14:15:16.966Z,10.90
2018-01-15T14:17:54.796Z,15.70
2018-01-15T14:20:30.134Z,15.00
2018-01-15T14:23:07.180Z,12.87
2018-01-15T14:25:43.015Z,14.10
2018-01-15T14:28:17.477Z,14.70
2018-01-15T14:30:51.293Z,15.90
2018-01-15T14:33:27.817Z,13.27
2018-01-15T14:36:10.565Z,13.10
2018-01-15T14:38:47.103Z,14.23
2018-01-15T14:41:21.969Z,11.63
2018-01-15T14:44:04.093Z,14.33
2018-01-15T14:46:39.204Z,14.00
2018-01-15T14:49:14.290Z,13.43
2018-01-15T14:51:53.689Z,16.00
2018-01-15T14:57:15.338Z,13.60
2018-01-15T14:59:50.865Z,15.20
2018-01-15T15:02:25.475Z,14.27
2018-01-15T15:04:59.928Z,16.17
2018-01-15T15:07:34.388Z,16.57
2018-01-15T15:10:14.925Z,18.00
2018-01-15T15:12:49.407Z,16.47
2018-01-15T15:15:40.508Z,16.57
2018-01-15T15:18:22.001Z,13.93
2018-01-15T15:20:56.724Z,13.67
2018-01-15T15:23:37.637Z,15.07
2018-01-15T15:26:12.184Z,15.33
2018-01-15T15:28:50.354Z,13.73
2018-01-15T15:31:25.156Z,12.60
2018-01-15T15:34:00.733Z,11.60
2018-01-15T15:36:35.035Z,11.33
2018-01-15T15:39:08.736Z,12.90
2018-01-15T15:41:43.669Z,15.20
2018-01-15T15:44:18.093Z,10.47
2018-01-15T15:46:52.273Z,16.07
2018-01-15T15:49:26.627Z,13.33
2018-01-15T15:52:01.156Z,15.13
2018-01-15T15:54:35.092Z,14.57
2018-01-15T15:57:10.731Z,11.10
2018-01-15T15:59:44.721Z,11.90
2018-01-15T16:02:18.799Z,13.87
2018-01-15T16:04:53.135Z,13.53
2018-01-15T16:07:27.738Z,13.57
2018-01-15T16:10:01.801Z,14.03
2018-01-15T16:12:35.676Z,15.13
2018-01-15T16:15:09.429Z,11.37
2018-01-15T16:17:43.219Z,14.70
2018-01-15T16:20:17.859Z,12.40
2018-01-15T16:22:58.275Z,9.70
2018-01-15T16:25:37.190Z,12.70
2018-01-15T16:28:12.233Z,14.00
2018-01-15T16:30:47.432Z,14.63
2018-01-15T16:33:22.994Z,10.90
2018-01-15T16:35:58.249Z,14.30
2018-01-15T16:38:32.071Z,13.67
2018-01-15T16:41:06.494Z,12.40
2018-01-15T16:43:40.592Z,14.67
2018-01-15T16:46:14.280Z,14.33
2018-01-15T16:48:48.805Z,13.40
2018-01-15T16:51:22.764Z,13.80
2018-01-15T16:53:56.521Z,11.57
2018-01-15T16:56:30.958Z,14.43
2018-01-15T16:59:05.049Z,13.20
2018-01-15T17:01:39.173Z,11.50
2018-01-15T17:04:13.728Z,13.83
2018-01-15T17:06:50.555Z,11.50
2018-01-15T17:09:26.013Z,11.90
2018-01-15T17:11:59.974Z,12.00
2018-01-15T17:14:34.405Z,10.60
2018-01-15T17:17:08.580Z,11.20
2018-01-15T17:19:42.837Z,11.90
2018-01-15T17:22:19.069Z,13.00
2018-01-15T17:24:55.041Z,12.10
2018-01-15T17:27:30.275Z,12.03
2018-01-15T17:30:04.941Z,8.90
2018-01-15T17:32:41.304Z,10.77
2018-01-15T17:35:15.809Z,11.67
2018-01-15T17:37:51.787Z,11.93
2018-01-15T17:40:27.034Z,11.70
2018-01-15T17:43:01.283Z,12.27
2018-01-15T17:45:36.299Z,11.73
2018-01-15T17:48:10.874Z,11.23
2018-01-15T17:50:45.040Z,10.27
2018-01-15T17:53:20.891Z,12.20
2018-01-15T17:55:54.549Z,13.10
2018-01-15T17:58:28.316Z,13.47
2018-01-15T18:01:02.417Z,12.40
2018-01-15T18:03:37.456Z,9.40
2018-01-15T18:06:13.821Z,11.30
2018-01-15T18:08:47.928Z,9.30
2018-01-15T18:11:22.297Z,10.53
2018-01-15T18:13:57.085Z,8.30
2018-01-15T18:16:31.238Z,10.80
2018-01-15T18:19:05.908Z,11.33
2018-01-15T18:21:40.404Z,12.67
2018-01-15T18:24:14.816Z,11.00
2018-01-15T18:26:48.729Z,10.73
2018-01-15T18:29:22.896Z,12.50
2018-01-15T18:31:57.266Z,9.30
2018-01-15T18:34:32.096Z,11.77
2018-01-15T18:37:06.118Z,10.70
2018-01-15T18:39:40.744Z,10.67
2018-01-15T18:42:14.800Z,9.97
2018-01-15T18:44:48.515Z,11.23
2018-01-15T18:47:23.093Z,8.27
2018-01-15T18:49:58.392Z,10.10
2018-01-15T18:52:32.648Z,9.60
2018-01-15T18:55:06.348Z,9.53
2018-01-15T18:57:40.013Z,9.50
2018-01-15T19:00:13.775Z,8.33
2018-01-15T19:02:49.124Z,9.00
2018-01-15T19:05:24.091Z,9.30
2018-01-15T19:07:58.745Z,10.57
2018-01-15T19:10:33.029Z,8.50
2018-01-15T19:13:07.032Z,10.53
2018-01-15T19:15:42.332Z,10.33
2018-01-15T19:18:16.071Z,7.97
2018-01-15T19:20:49.736Z,9.80
2018-01-15T19:23:24.040Z,8.30
2018-01-15T19:25:59.092Z,10.53
2018-01-15T19:28:33.226Z,9.70
2018-01-15T19:31:07.253Z,9.67
2018-01-15T19:33:40.892Z,7.70
2018-01-15T19:36:23.463Z,10.47
2018-01-15T19:38:59.422Z,7.50
2018-01-15T19:41:36.782Z,9.37
2018-01-15T19:47:10.468Z,8.23
2018-01-15T19:49:51.653Z,9.90
2018-01-15T20:06:31.457Z,9.50
2018-01-15T20:09:11.177Z,10.47
2018-01-15T20:11:45.227Z,10.70
2018-01-15T20:14:19.866Z,10.80
2018-01-15T20:16:55.260Z,12.13
2018-01-15T20:19:29.543Z,10.70
2018-01-15T20:22:05.235Z,7.13
2018-01-15T20:24:38.884Z,11.00
2018-01-15T20:27:12.688Z,10.10
2018-01-15T20:29:47.293Z,11.23
2018-01-15T20:32:21.100Z,9.87
2018-01-15T20:34:55.625Z,9.07
2018-01-15T20:37:30.413Z,10.93
2018-01-15T20:40:05.054Z,10.20
2018-01-15T20:42:39.704Z,8.87
2018-01-15T20:45:13.653Z,7.90
2018-01-15T20:47:47.367Z,11.00
2018-01-15T20:50:32.712Z,7.40
2018-01-15T20:53:07.850Z,10.27
2018-01-15T20:55:45.192Z,8.10
2018-01-15T20:58:28.769Z,9.67
2018-01-15T21:03:42.525Z,10.00
2018-01-15T21:06:16.394Z,28.33
2018-01-15T21:08:50.159Z,10.93
2018-01-15T21:11:23.977Z,7.20
2018-01-15T21:13:57.773Z,6.70
2018-01-15T21:16:31.381Z,7.70
2018-01-15T21:19:05.064Z,6.20
2018-01-15T21:21:38.917Z,8.80
2018-01-15T21:24:13.780Z,7.10
2018-01-15T21:26:51.198Z,9.30
2018-01-15T21:29:25.070Z,9.00
2018-01-15T21:32:01.513Z,7.87
2018-01-15T21:34:36.390Z,7.80
2018-01-15T21:39:51.548Z,8.43
2018-01-15T21:42:25.491Z,6.07
2018-01-15T21:44:59.241Z,4.40
2018-01-15T21:47:33.779Z,3.93
2018-01-15T21:50:07.564Z,4.10
2018-01-15T21:52:42.208Z,3.70
2018-01-15T21:55:16.867Z,3.87
2018-01-15T21:57:51.590Z,3.10
2018-01-15T22:00:25.557Z,2.97
2018-01-15T22:02:59.234Z,2.90
2018-01-15T22:05:33.804Z,8.60
2018-01-15T22:08:07.908Z,3.07
2018-01-15T22:10:42.517Z,3.63
2018-01-15T22:13:16.308Z,3.27
2018-01-15T22:15:50.040Z,3.20
2018-01-15T22:18:23.978Z,3.03
2018-01-15T22:20:58.743Z,4.33
2018-01-15T22:23:33.329Z,3.10
2018-01-15T22:26:07.530Z,3.33
2018-01-15T22:28:41.981Z,3.70
2018-01-15T22:31:16.081Z,3.17
2018-01-15T22:33:50.698Z,2.73
2018-01-15T22:36:24.918Z,2.80
2018-01-15T22:38:58.850Z,3.03
2018-01-15T22:41:32.511Z,2.43
2018-01-15T22:44:06.156Z,3.10
2018-01-15T22:46:40.632Z,2.73
2018-01-15T22:49:14.596Z,2.70
2018-01-15T22:51:48.324Z,2.80
2018-01-15T22:54:22.008Z,2.40
2018-01-15T22:56:56.613Z,3.27
2018-01-15T22:59:30.587Z,2.20
2018-01-15T23:02:04.366Z,2.50
2018-01-15T23:04:38.072Z,2.80
2018-01-15T23:07:11.768Z,4.70
2018-01-15T23:09:45.540Z,2.70
2018-01-15T23:12:19.177Z,2.53
2018-01-15T23:14:53.054Z,1.60
2018-01-15T23:17:26.753Z,2.80
2018-01-15T23:20:00.557Z,2.63
2018-01-15T23:22:34.464Z,2.70
2018-01-15T23:25:08.431Z,1.73
2018-01-15T23:27:42.250Z,1.70
2018-01-15T23:30:16.791Z,2.30
2018-01-15T23:32:51.727Z,2.07
2018-01-15T23:35:25.467Z,1.87
2018-01-15T23:37:59.235Z,2.27
2018-01-15T23:40:33.047Z,1.97
2018-01-15T23:43:07.619Z,3.03
2018-01-15T23:45:41.242Z,2.20
2018-01-15T23:48:15.163Z,1.87
2018-01-15T23:50:49.749Z,1.87
2018-01-15T23:53:23.875Z,1.37
2018-01-15T23:55:57.641Z,1.67
2018-01-15T23:58:32.136Z,1.80
